sensor_id;sensor_type;location;lat;lon;timestamp;temperature;humidity
18868;DHT22;9563;49.240;9.088;2023-04-07T05:01:29;7.90;99.90
18868;DHT22;9563;49.240;9.088;2023-04-07T05:03:56;8.00;99.90
18868;DHT22;9563;49.240;9.088;2023-04-07T05:06:23;8.00;99.90
18868;DHT22;9563;49.240;9.088;2023-04-07T05:08:51;7.90;99.90
18868;DHT22;9563;49.240;9.088;2023-04-07T05:11:18;8.00;99.90
18868;DHT22;9563;49.240;9.088;2023-04-07T05:13:46;8.00;99.90
18868;DHT22;9563;49.240;9.088;2023-04-07T05:16:12;8.00;99.90
18868;DHT22;9563;49.240;9.088;2023-04-07T05:18:41;8.00;99.90
18868;DHT22;9563;49.240;9.088;2023-04-07T05:21:08;8.00;99.90
18868;DHT22;9563;49.240;9.088;2023-04-07T05:23:35;8.00;99.90
18868;DHT22;9563;49.240;9.088;2023-04-07T05:26:02;8.00;99.90
18868;DHT22;9563;49.240;9.088;2023-04-07T05:28:28;8.00;99.90
18868;DHT22;9563;49.240;9.088;2023-04-07T05:30:55;8.00;99.90
18868;DHT22;9563;49.240;9.088;2023-04-07T05:33:22;8.00;99.90
18868;DHT22;9563;49.240;9.088;2023-04-07T05:35:50;8.10;99.90
18868;DHT22;9563;49.240;9.088;2023-04-07T05:38:17;8.10;99.90
18868;DHT22;9563;49.240;9.088;2023-04-07T05:40:44;8.10;99.90
18868;DHT22;9563;49.240;9.088;2023-04-07T05:43:11;8.10;99.90
18868;DHT22;9563;49.240;9.088;2023-04-07T05:45:38;8.10;99.90
18868;DHT22;9563;49.240;9.088;2023-04-07T05:48:05;8.10;99.90
18868;DHT22;9563;49.240;9.088;2023-04-07T05:50:32;8.10;99.90
18868;DHT22;9563;49.240;9.088;2023-04-07T05:53:00;8.10;99.90
18868;DHT22;9563;49.240;9.088;2023-04-07T05:55:27;8.10;99.90
18868;DHT22;9563;49.240;9.088;2023-04-07T05:57:54;8.10;99.90
18868;DHT22;9563;49.240;9.088;2023-04-07T06:00:21;8.10;99.90
18868;DHT22;9563;49.240;9.088;2023-04-07T06:02:48;8.10;99.90
18868;DHT22;9563;49.240;9.088;2023-04-07T06:05:15;8.20;99.90
18868;DHT22;9563;49.240;9.088;2023-04-07T06:07:41;8.20;99.90
18868;DHT22;9563;49.240;9.088;2023-04-07T06:10:10;8.20;99.90
18868;DHT22;9563;49.240;9.088;2023-04-07T06:12:37;8.20;99.90
18868;DHT22;9563;49.240;9.088;2023-04-07T06:15:04;8.30;99.90
18868;DHT22;9563;49.240;9.088;2023-04-07T06:17:31;8.40;99.90
18868;DHT22;9563;49.240;9.088;2023-04-07T06:19:58;8.40;99.90
18868;DHT22;9563;49.240;9.088;2023-04-07T06:22:25;8.50;99.90
18868;DHT22;9563;49.240;9.088;2023-04-07T06:24:51;8.60;99.90
18868;DHT22;9563;49.240;9.088;2023-04-07T06:27:20;8.70;99.90
18868;DHT22;9563;49.240;9.088;2023-04-07T06:29:47;8.70;99.90
18868;DHT22;9563;49.240;9.088;2023-04-07T06:32:13;8.70;99.90
18868;DHT22;9563;49.240;9.088;2023-04-07T06:34:41;8.70;99.90
18868;DHT22;9563;49.240;9.088;2023-04-07T06:37:08;8.80;99.90
18868;DHT22;9563;49.240;9.088;2023-04-07T06:39:35;8.90;99.90
18868;DHT22;9563;49.240;9.088;2023-04-07T06:42:02;9.20;99.90
18868;DHT22;9563;49.240;9.088;2023-04-07T06:44:31;9.30;99.90
18868;DHT22;9563;49.240;9.088;2023-04-07T06:46:58;9.50;99.90
18868;DHT22;9563;49.240;9.088;2023-04-07T06:49:25;9.60;99.90
18868;DHT22;9563;49.240;9.088;2023-04-07T06:51:51;9.60;99.90
18868;DHT22;9563;49.240;9.088;2023-04-07T06:54:18;9.50;99.90
18868;DHT22;9563;49.240;9.088;2023-04-07T06:56:46;9.40;99.90
18868;DHT22;9563;49.240;9.088;2023-04-07T06:59:12;9.30;99.90
18868;DHT22;9563;49.240;9.088;2023-04-07T07:01:41;9.20;99.90
18868;DHT22;9563;49.240;9.088;2023-04-07T07:04:08;9.10;99.90
18868;DHT22;9563;49.240;9.088;2023-04-07T07:06:35;9.20;99.90
18868;DHT22;9563;49.240;9.088;2023-04-07T07:09:02;9.20;99.90
18868;DHT22;9563;49.240;9.088;2023-04-07T07:11:29;9.30;99.90
18868;DHT22;9563;49.240;9.088;2023-04-07T07:13:56;9.10;99.90
18868;DHT22;9563;49.240;9.088;2023-04-07T07:16:23;9.10;99.90
18868;DHT22;9563;49.240;9.088;2023-04-07T07:18:51;9.20;99.90
18868;DHT22;9563;49.240;9.088;2023-04-07T07:21:18;9.60;99.90
18868;DHT22;9563;49.240;9.088;2023-04-07T07:23:45;10.00;99.90
18868;DHT22;9563;49.240;9.088;2023-04-07T07:26:12;10.30;99.90
18868;DHT22;9563;49.240;9.088;2023-04-07T07:28:39;10.70;99.90
18868;DHT22;9563;49.240;9.088;2023-04-07T07:31:08;11.00;99.90
18868;DHT22;9563;49.240;9.088;2023-04-07T07:33:38;11.30;99.90
18868;DHT22;9563;49.240;9.088;2023-04-07T07:36:07;11.60;99.90
18868;DHT22;9563;49.240;9.088;2023-04-07T07:38:34;12.00;99.90
18868;DHT22;9563;49.240;9.088;2023-04-07T07:41:01;12.30;99.90
18868;DHT22;9563;49.240;9.088;2023-04-07T07:43:28;12.40;99.90
18868;DHT22;9563;49.240;9.088;2023-04-07T07:45:55;12.60;99.90
18868;DHT22;9563;49.240;9.088;2023-04-07T07:48:22;12.70;99.90
18868;DHT22;9563;49.240;9.088;2023-04-07T07:50:49;12.80;99.90
18868;DHT22;9563;49.240;9.088;2023-04-07T07:53:18;13.20;99.90
18868;DHT22;9563;49.240;9.088;2023-04-07T07:55:45;13.10;99.90
18868;DHT22;9563;49.240;9.088;2023-04-07T07:58:12;13.40;99.90
18868;DHT22;9563;49.240;9.088;2023-04-07T08:00:39;13.70;99.90
18868;DHT22;9563;49.240;9.088;2023-04-07T08:03:06;14.00;99.90
18868;DHT22;9563;49.240;9.088;2023-04-07T08:05:33;14.30;99.90
18868;DHT22;9563;49.240;9.088;2023-04-07T08:08:00;14.50;99.90
18868;DHT22;9563;49.240;9.088;2023-04-07T08:10:28;14.50;99.90
18868;DHT22;9563;49.240;9.088;2023-04-07T08:12:55;14.60;99.90
18868;DHT22;9563;49.240;9.088;2023-04-07T08:15:22;14.50;99.90
18868;DHT22;9563;49.240;9.088;2023-04-07T08:17:50;14.60;99.90
18868;DHT22;9563;49.240;9.088;2023-04-07T08:20:17;14.70;99.90
18868;DHT22;9563;49.240;9.088;2023-04-07T08:22:43;14.30;99.90
18868;DHT22;9563;49.240;9.088;2023-04-07T08:25:10;14.30;99.90
18868;DHT22;9563;49.240;9.088;2023-04-07T08:27:38;14.50;99.90
18868;DHT22;9563;49.240;9.088;2023-04-07T08:30:06;14.90;99.90
18868;DHT22;9563;49.240;9.088;2023-04-07T08:32:34;14.80;99.90
18868;DHT22;9563;49.240;9.088;2023-04-07T08:35:02;14.70;99.90
18868;DHT22;9563;49.240;9.088;2023-04-07T08:37:29;14.50;99.90
18868;DHT22;9563;49.240;9.088;2023-04-07T08:39:56;14.10;99.90
18868;DHT22;9563;49.240;9.088;2023-04-07T08:42:26;14.00;99.90
18868;DHT22;9563;49.240;9.088;2023-04-07T08:44:57;13.80;99.90
18868;DHT22;9563;49.240;9.088;2023-04-07T08:47:25;13.80;99.90
18868;DHT22;9563;49.240;9.088;2023-04-07T08:49:56;14.10;99.90
18868;DHT22;9563;49.240;9.088;2023-04-07T08:52:32;14.10;99.90
18868;DHT22;9563;49.240;9.088;2023-04-07T08:54:59;13.90;99.90
18868;DHT22;9563;49.240;9.088;2023-04-07T08:57:28;14.00;99.90
18868;DHT22;9563;49.240;9.088;2023-04-07T08:59:57;14.00;99.90
18868;DHT22;9563;49.240;9.088;2023-04-07T09:02:27;14.40;99.90
18868;DHT22;9563;49.240;9.088;2023-04-07T09:04:54;14.50;99.90
18868;DHT22;9563;49.240;9.088;2023-04-07T09:07:21;15.00;99.90
18868;DHT22;9563;49.240;9.088;2023-04-07T09:09:48;15.70;99.90
18868;DHT22;9563;49.240;9.088;2023-04-07T09:12:15;16.20;99.90
18868;DHT22;9563;49.240;9.088;2023-04-07T09:14:42;16.40;99.90
18868;DHT22;9563;49.240;9.088;2023-04-07T09:17:11;16.40;99.90
18868;DHT22;9563;49.240;9.088;2023-04-07T09:19:38;16.50;99.90
18868;DHT22;9563;49.240;9.088;2023-04-07T09:22:05;16.50;99.90
18868;DHT22;9563;49.240;9.088;2023-04-07T09:24:32;16.30;99.90
18868;DHT22;9563;49.240;9.088;2023-04-07T09:27:10;16.50;99.90
18868;DHT22;9563;49.240;9.088;2023-04-07T09:29:37;16.30;99.90
18868;DHT22;9563;49.240;9.088;2023-04-07T09:32:05;16.00;99.90
18868;DHT22;9563;49.240;9.088;2023-04-07T09:34:34;15.40;99.90
18868;DHT22;9563;49.240;9.088;2023-04-07T09:37:02;15.30;99.90
18868;DHT22;9563;49.240;9.088;2023-04-07T09:39:30;15.40;99.90
18868;DHT22;9563;49.240;9.088;2023-04-07T09:41:57;15.40;99.90
18868;DHT22;9563;49.240;9.088;2023-04-07T09:44:25;15.20;99.90
18868;DHT22;9563;49.240;9.088;2023-04-07T09:46:53;15.30;99.90
18868;DHT22;9563;49.240;9.088;2023-04-07T09:49:21;15.80;99.90
18868;DHT22;9563;49.240;9.088;2023-04-07T09:51:54;16.40;99.90
18868;DHT22;9563;49.240;9.088;2023-04-07T09:54:37;17.10;99.90
18868;DHT22;9563;49.240;9.088;2023-04-07T09:57:07;17.70;99.90
18868;DHT22;9563;49.240;9.088;2023-04-07T09:59:36;17.90;99.90
18868;DHT22;9563;49.240;9.088;2023-04-07T10:02:04;17.00;99.90
18868;DHT22;9563;49.240;9.088;2023-04-07T10:04:31;16.30;99.90
18868;DHT22;9563;49.240;9.088;2023-04-07T10:07:00;15.40;99.90
18868;DHT22;9563;49.240;9.088;2023-04-07T10:09:28;14.60;99.90
18868;DHT22;9563;49.240;9.088;2023-04-07T10:11:57;13.80;99.90
18868;DHT22;9563;49.240;9.088;2023-04-07T10:14:26;13.50;99.90
18868;DHT22;9563;49.240;9.088;2023-04-07T10:16:53;13.20;99.90
18868;DHT22;9563;49.240;9.088;2023-04-07T10:19:22;13.00;99.90
18868;DHT22;9563;49.240;9.088;2023-04-07T10:21:52;13.00;99.90
18868;DHT22;9563;49.240;9.088;2023-04-07T10:24:33;12.90;99.90
18868;DHT22;9563;49.240;9.088;2023-04-07T10:27:04;13.00;99.90
18868;DHT22;9563;49.240;9.088;2023-04-07T10:29:36;13.20;99.90
18868;DHT22;9563;49.240;9.088;2023-04-07T10:32:03;13.40;99.90
18868;DHT22;9563;49.240;9.088;2023-04-07T10:34:57;13.50;99.90
18868;DHT22;9563;49.240;9.088;2023-04-07T10:37:25;13.60;99.90
18868;DHT22;9563;49.240;9.088;2023-04-07T10:43:03;13.70;99.90
18868;DHT22;9563;49.240;9.088;2023-04-07T10:45:53;13.70;99.90
18868;DHT22;9563;49.240;9.088;2023-04-07T10:48:24;13.80;99.90
18868;DHT22;9563;49.240;9.088;2023-04-07T10:51:15;13.90;99.90
18868;DHT22;9563;49.240;9.088;2023-04-07T10:57:06;14.10;99.90
18868;DHT22;9563;49.240;9.088;2023-04-07T10:59:37;14.30;99.90
18868;DHT22;9563;49.240;9.088;2023-04-07T11:02:31;14.30;99.90
18868;DHT22;9563;49.240;9.088;2023-04-07T11:04:59;14.80;99.90
18868;DHT22;9563;49.240;9.088;2023-04-07T11:07:44;14.90;99.90
18868;DHT22;9563;49.240;9.088;2023-04-07T11:10:12;15.60;99.90
18868;DHT22;9563;49.240;9.088;2023-04-07T11:12:40;16.50;99.90
18868;DHT22;9563;49.240;9.088;2023-04-07T11:15:19;16.60;99.90
18868;DHT22;9563;49.240;9.088;2023-04-07T11:17:46;16.40;99.90
18868;DHT22;9563;49.240;9.088;2023-04-07T11:20:13;16.10;99.90
18868;DHT22;9563;49.240;9.088;2023-04-07T11:22:40;15.70;99.90
18868;DHT22;9563;49.240;9.088;2023-04-07T11:25:20;15.40;99.90
18868;DHT22;9563;49.240;9.088;2023-04-07T11:27:47;15.20;99.90
18868;DHT22;9563;49.240;9.088;2023-04-07T11:30:15;14.90;99.90
18868;DHT22;9563;49.240;9.088;2023-04-07T11:32:48;14.70;99.90
18868;DHT22;9563;49.240;9.088;2023-04-07T11:35:16;14.60;99.90
18868;DHT22;9563;49.240;9.088;2023-04-07T11:37:43;14.40;99.90
18868;DHT22;9563;49.240;9.088;2023-04-07T11:40:10;14.50;99.90
18868;DHT22;9563;49.240;9.088;2023-04-07T11:42:41;14.40;99.90
18868;DHT22;9563;49.240;9.088;2023-04-07T11:45:15;14.40;99.90
18868;DHT22;9563;49.240;9.088;2023-04-07T11:47:44;14.40;99.90
18868;DHT22;9563;49.240;9.088;2023-04-07T11:50:12;14.80;99.90
18868;DHT22;9563;49.240;9.088;2023-04-07T11:52:40;15.60;99.90
18868;DHT22;9563;49.240;9.088;2023-04-07T11:55:16;16.40;99.90
18868;DHT22;9563;49.240;9.088;2023-04-07T11:57:43;17.40;99.90
18868;DHT22;9563;49.240;9.088;2023-04-07T12:00:11;18.10;99.90
18868;DHT22;9563;49.240;9.088;2023-04-07T12:02:39;18.60;99.90
18868;DHT22;9563;49.240;9.088;2023-04-07T12:05:06;18.80;99.90
18868;DHT22;9563;49.240;9.088;2023-04-07T12:07:36;19.00;99.90
18868;DHT22;9563;49.240;9.088;2023-04-07T12:10:19;19.30;99.90
18868;DHT22;9563;49.240;9.088;2023-04-07T12:12:46;19.50;99.90
18868;DHT22;9563;49.240;9.088;2023-04-07T12:15:14;19.30;99.90
18868;DHT22;9563;49.240;9.088;2023-04-07T12:17:44;18.90;99.90
18868;DHT22;9563;49.240;9.088;2023-04-07T12:20:11;19.00;99.90
18868;DHT22;9563;49.240;9.088;2023-04-07T12:22:39;19.20;99.90
18868;DHT22;9563;49.240;9.088;2023-04-07T12:25:07;19.50;99.90
18868;DHT22;9563;49.240;9.088;2023-04-07T12:27:34;19.80;99.90
18868;DHT22;9563;49.240;9.088;2023-04-07T12:30:01;19.80;99.90
18868;DHT22;9563;49.240;9.088;2023-04-07T12:32:28;19.90;99.90
18868;DHT22;9563;49.240;9.088;2023-04-07T12:34:57;19.20;96.30
18868;DHT22;9563;49.240;9.088;2023-04-07T12:37:24;18.20;98.10
18868;DHT22;9563;49.240;9.088;2023-04-07T12:39:53;17.40;99.80
18868;DHT22;9563;49.240;9.088;2023-04-07T12:42:20;16.40;99.90
18868;DHT22;9563;49.240;9.088;2023-04-07T12:44:47;16.40;99.90
18868;DHT22;9563;49.240;9.088;2023-04-07T12:47:13;16.40;99.90
18868;DHT22;9563;49.240;9.088;2023-04-07T12:49:41;16.30;99.90
18868;DHT22;9563;49.240;9.088;2023-04-07T12:52:08;15.60;99.90
18868;DHT22;9563;49.240;9.088;2023-04-07T12:54:34;15.50;99.90
18868;DHT22;9563;49.240;9.088;2023-04-07T12:57:03;15.60;99.90
18868;DHT22;9563;49.240;9.088;2023-04-07T12:59:29;15.30;99.90
18868;DHT22;9563;49.240;9.088;2023-04-07T13:01:56;15.40;99.90
18868;DHT22;9563;49.240;9.088;2023-04-07T13:04:23;15.80;99.90
18868;DHT22;9563;49.240;9.088;2023-04-07T13:06:51;15.70;99.90
18868;DHT22;9563;49.240;9.088;2023-04-07T13:09:18;15.60;99.90
18868;DHT22;9563;49.240;9.088;2023-04-07T13:11:45;15.80;99.90
18868;DHT22;9563;49.240;9.088;2023-04-07T13:14:13;16.00;99.90
18868;DHT22;9563;49.240;9.088;2023-04-07T13:16:40;16.10;99.90
18868;DHT22;9563;49.240;9.088;2023-04-07T13:19:08;16.30;99.90
18868;DHT22;9563;49.240;9.088;2023-04-07T13:21:34;16.50;99.90
18868;DHT22;9563;49.240;9.088;2023-04-07T13:24:02;16.40;99.90
18868;DHT22;9563;49.240;9.088;2023-04-07T13:26:29;16.10;99.90
18868;DHT22;9563;49.240;9.088;2023-04-07T13:28:56;15.90;99.90
18868;DHT22;9563;49.240;9.088;2023-04-07T13:31:26;15.60;99.90
18868;DHT22;9563;49.240;9.088;2023-04-07T13:33:53;15.30;99.90
18868;DHT22;9563;49.240;9.088;2023-04-07T13:36:21;15.10;99.90
18868;DHT22;9563;49.240;9.088;2023-04-07T13:38:48;14.50;99.90
18868;DHT22;9563;49.240;9.088;2023-04-07T13:41:15;13.90;99.90
18868;DHT22;9563;49.240;9.088;2023-04-07T13:43:41;13.50;99.90
18868;DHT22;9563;49.240;9.088;2023-04-07T13:46:11;13.20;99.90
18868;DHT22;9563;49.240;9.088;2023-04-07T13:48:40;12.80;99.90
18868;DHT22;9563;49.240;9.088;2023-04-07T13:51:08;12.80;99.90
18868;DHT22;9563;49.240;9.088;2023-04-07T13:53:35;12.70;99.90
18868;DHT22;9563;49.240;9.088;2023-04-07T13:56:02;12.80;99.90
18868;DHT22;9563;49.240;9.088;2023-04-07T13:58:32;12.90;99.90
18868;DHT22;9563;49.240;9.088;2023-04-07T14:00:59;13.00;99.90
18868;DHT22;9563;49.240;9.088;2023-04-07T14:03:26;13.00;99.90
18868;DHT22;9563;49.240;9.088;2023-04-07T14:05:55;13.10;99.90
18868;DHT22;9563;49.240;9.088;2023-04-07T14:08:25;13.20;99.90
18868;DHT22;9563;49.240;9.088;2023-04-07T14:10:52;13.20;99.90
18868;DHT22;9563;49.240;9.088;2023-04-07T14:13:19;13.10;99.90
18868;DHT22;9563;49.240;9.088;2023-04-07T14:15:46;13.20;99.90
18868;DHT22;9563;49.240;9.088;2023-04-07T14:18:14;13.00;99.90
18868;DHT22;9563;49.240;9.088;2023-04-07T14:20:41;12.80;99.90
18868;DHT22;9563;49.240;9.088;2023-04-07T14:23:10;12.80;99.90
18868;DHT22;9563;49.240;9.088;2023-04-07T14:25:38;13.00;99.90
18868;DHT22;9563;49.240;9.088;2023-04-07T14:28:05;12.90;99.90
18868;DHT22;9563;49.240;9.088;2023-04-07T14:30:34;13.00;99.90
18868;DHT22;9563;49.240;9.088;2023-04-07T14:33:03;13.10;99.90
18868;DHT22;9563;49.240;9.088;2023-04-07T14:35:30;13.30;99.90
18868;DHT22;9563;49.240;9.088;2023-04-07T14:37:57;13.30;99.90
18868;DHT22;9563;49.240;9.088;2023-04-07T14:40:25;13.40;99.90
18868;DHT22;9563;49.240;9.088;2023-04-07T14:42:52;13.50;99.90
18868;DHT22;9563;49.240;9.088;2023-04-07T14:45:19;13.50;99.90
18868;DHT22;9563;49.240;9.088;2023-04-07T14:47:46;13.50;99.90
18868;DHT22;9563;49.240;9.088;2023-04-07T14:50:13;13.50;99.90
18868;DHT22;9563;49.240;9.088;2023-04-07T14:52:40;13.40;99.90
18868;DHT22;9563;49.240;9.088;2023-04-07T14:55:08;13.50;99.90
18868;DHT22;9563;49.240;9.088;2023-04-07T14:57:37;13.50;99.90
18868;DHT22;9563;49.240;9.088;2023-04-07T15:00:05;13.50;99.90
18868;DHT22;9563;49.240;9.088;2023-04-07T15:02:33;13.50;99.90
18868;DHT22;9563;49.240;9.088;2023-04-07T15:05:00;13.50;99.90
18868;DHT22;9563;49.240;9.088;2023-04-07T15:07:27;13.30;99.90
18868;DHT22;9563;49.240;9.088;2023-04-07T15:09:54;13.30;99.90
18868;DHT22;9563;49.240;9.088;2023-04-07T15:12:24;13.40;99.90
18868;DHT22;9563;49.240;9.088;2023-04-07T15:14:53;13.80;99.90
18868;DHT22;9563;49.240;9.088;2023-04-07T15:17:20;14.20;99.90
18868;DHT22;9563;49.240;9.088;2023-04-07T15:19:47;14.70;99.90
18868;DHT22;9563;49.240;9.088;2023-04-07T15:22:14;15.10;99.90
18868;DHT22;9563;49.240;9.088;2023-04-07T15:24:41;15.30;99.90
18868;DHT22;9563;49.240;9.088;2023-04-07T15:27:09;15.40;99.90
18868;DHT22;9563;49.240;9.088;2023-04-07T15:29:36;15.50;99.90
18868;DHT22;9563;49.240;9.088;2023-04-07T15:32:05;15.80;99.90
18868;DHT22;9563;49.240;9.088;2023-04-07T15:34:31;16.20;99.90
18868;DHT22;9563;49.240;9.088;2023-04-07T15:36:58;16.40;99.90
18868;DHT22;9563;49.240;9.088;2023-04-07T15:39:25;16.20;99.90
18868;DHT22;9563;49.240;9.088;2023-04-07T15:41:52;15.90;99.90
18868;DHT22;9563;49.240;9.088;2023-04-07T15:44:19;15.70;99.90
18868;DHT22;9563;49.240;9.088;2023-04-07T15:46:46;15.40;99.90
18868;DHT22;9563;49.240;9.088;2023-04-07T15:49:15;15.40;99.90
18868;DHT22;9563;49.240;9.088;2023-04-07T15:51:46;15.60;99.90
18868;DHT22;9563;49.240;9.088;2023-04-07T15:54:13;15.80;99.90
18868;DHT22;9563;49.240;9.088;2023-04-07T15:56:40;16.00;99.90
18868;DHT22;9563;49.240;9.088;2023-04-07T15:59:07;16.10;99.90
18868;DHT22;9563;49.240;9.088;2023-04-07T16:01:34;15.70;99.90
18868;DHT22;9563;49.240;9.088;2023-04-07T16:04:01;15.30;99.90
18868;DHT22;9563;49.240;9.088;2023-04-07T16:06:30;15.10;99.90
18868;DHT22;9563;49.240;9.088;2023-04-07T16:08:57;14.80;99.90
18868;DHT22;9563;49.240;9.088;2023-04-07T16:11:24;14.50;99.90
18868;DHT22;9563;49.240;9.088;2023-04-07T16:13:51;14.40;99.90
18868;DHT22;9563;49.240;9.088;2023-04-07T16:16:18;14.20;99.90
18868;DHT22;9563;49.240;9.088;2023-04-07T16:18:45;14.10;99.90
18868;DHT22;9563;49.240;9.088;2023-04-07T16:21:12;13.80;99.90
18868;DHT22;9563;49.240;9.088;2023-04-07T16:23:41;13.50;99.90
18868;DHT22;9563;49.240;9.088;2023-04-07T16:26:08;13.20;99.90
18868;DHT22;9563;49.240;9.088;2023-04-07T16:28:35;12.90;99.90
18868;DHT22;9563;49.240;9.088;2023-04-07T16:31:03;12.50;99.90
18868;DHT22;9563;49.240;9.088;2023-04-07T16:33:33;12.30;99.90
18868;DHT22;9563;49.240;9.088;2023-04-07T16:36:00;12.10;99.90
18868;DHT22;9563;49.240;9.088;2023-04-07T16:38:27;12.00;99.90
18868;DHT22;9563;49.240;9.088;2023-04-07T16:40:56;11.90;99.90
18868;DHT22;9563;49.240;9.088;2023-04-07T16:43:23;11.80;99.90
18868;DHT22;9563;49.240;9.088;2023-04-07T16:45:50;11.70;99.90
18868;DHT22;9563;49.240;9.088;2023-04-07T16:48:17;11.80;99.90
18868;DHT22;9563;49.240;9.088;2023-04-07T16:50:44;11.80;99.90
18868;DHT22;9563;49.240;9.088;2023-04-07T16:53:11;11.70;99.90
18868;DHT22;9563;49.240;9.088;2023-04-07T16:55:40;11.70;99.90
18868;DHT22;9563;49.240;9.088;2023-04-07T16:58:09;11.70;99.90
18868;DHT22;9563;49.240;9.088;2023-04-07T17:00:36;11.60;99.90
18868;DHT22;9563;49.240;9.088;2023-04-07T17:03:03;11.70;99.90
18868;DHT22;9563;49.240;9.088;2023-04-07T17:05:30;11.60;99.90
18868;DHT22;9563;49.240;9.088;2023-04-07T17:07:57;11.60;99.90
18868;DHT22;9563;49.240;9.088;2023-04-07T17:10:24;11.70;99.90
18868;DHT22;9563;49.240;9.088;2023-04-07T17:12:51;11.70;99.90
18868;DHT22;9563;49.240;9.088;2023-04-07T17:15:22;11.70;99.90
18868;DHT22;9563;49.240;9.088;2023-04-07T17:17:49;11.70;99.90
18868;DHT22;9563;49.240;9.088;2023-04-07T17:20:16;11.70;99.90
18868;DHT22;9563;49.240;9.088;2023-04-07T17:22:43;11.80;99.90
18868;DHT22;9563;49.240;9.088;2023-04-07T17:25:11;11.80;99.90
18868;DHT22;9563;49.240;9.088;2023-04-07T17:27:37;11.80;99.90
18868;DHT22;9563;49.240;9.088;2023-04-07T17:30:05;11.80;99.90
18868;DHT22;9563;49.240;9.088;2023-04-07T17:32:34;11.70;99.90
18868;DHT22;9563;49.240;9.088;2023-04-07T17:35:01;11.70;99.90
18868;DHT22;9563;49.240;9.088;2023-04-07T17:37:28;11.80;99.90
18868;DHT22;9563;49.240;9.088;2023-04-07T17:39:55;11.80;99.90
18868;DHT22;9563;49.240;9.088;2023-04-07T17:42:22;11.80;99.90
18868;DHT22;9563;49.240;9.088;2023-04-07T17:44:50;11.80;99.90
18868;DHT22;9563;49.240;9.088;2023-04-07T17:48:01;11.90;99.90
18868;DHT22;9563;49.240;9.088;2023-04-07T17:50:28;11.90;99.90
18868;DHT22;9563;49.240;9.088;2023-04-07T17:52:55;11.90;99.90
18868;DHT22;9563;49.240;9.088;2023-04-07T17:55:25;11.90;99.90
18868;DHT22;9563;49.240;9.088;2023-04-07T17:57:52;11.90;99.90
18868;DHT22;9563;49.240;9.088;2023-04-07T18:00:25;11.80;99.90
18868;DHT22;9563;49.240;9.088;2023-04-07T18:02:53;11.80;99.90
18868;DHT22;9563;49.240;9.088;2023-04-07T18:05:20;11.80;99.90
18868;DHT22;9563;49.240;9.088;2023-04-07T18:07:47;11.70;99.90
18868;DHT22;9563;49.240;9.088;2023-04-07T18:10:15;11.70;99.90
18868;DHT22;9563;49.240;9.088;2023-04-07T18:12:42;11.70;99.90
18868;DHT22;9563;49.240;9.088;2023-04-07T18:15:10;11.70;99.90
18868;DHT22;9563;49.240;9.088;2023-04-07T18:17:37;11.70;99.90
18868;DHT22;9563;49.240;9.088;2023-04-07T18:20:06;11.70;99.90
18868;DHT22;9563;49.240;9.088;2023-04-07T18:22:33;11.70;99.90
18868;DHT22;9563;49.240;9.088;2023-04-07T18:25:01;11.60;99.90
18868;DHT22;9563;49.240;9.088;2023-04-07T18:27:28;11.50;99.90
18868;DHT22;9563;49.240;9.088;2023-04-07T18:29:55;11.50;99.90
18868;DHT22;9563;49.240;9.088;2023-04-07T18:32:22;11.40;99.90
18868;DHT22;9563;49.240;9.088;2023-04-07T18:34:49;11.30;99.90
18868;DHT22;9563;49.240;9.088;2023-04-07T18:37:19;11.30;99.90
18868;DHT22;9563;49.240;9.088;2023-04-07T18:39:46;11.20;99.90
18868;DHT22;9563;49.240;9.088;2023-04-07T18:42:13;11.10;99.90
18868;DHT22;9563;49.240;9.088;2023-04-07T18:44:40;11.00;99.90
18868;DHT22;9563;49.240;9.088;2023-04-07T18:47:07;10.80;99.90
18868;DHT22;9563;49.240;9.088;2023-04-07T18:49:34;10.80;99.90
18868;DHT22;9563;49.240;9.088;2023-04-07T18:52:01;10.80;99.90
18868;DHT22;9563;49.240;9.088;2023-04-07T18:54:30;10.80;99.90
18868;DHT22;9563;49.240;9.088;2023-04-07T18:56:57;10.80;99.90
18868;DHT22;9563;49.240;9.088;2023-04-07T18:59:24;10.80;99.90
18868;DHT22;9563;49.240;9.088;2023-04-07T19:01:51;10.90;99.90
18868;DHT22;9563;49.240;9.088;2023-04-07T19:04:18;10.90;99.90
18868;DHT22;9563;49.240;9.088;2023-04-07T19:06:48;10.90;99.90
18868;DHT22;9563;49.240;9.088;2023-04-07T19:09:15;10.90;99.90
18868;DHT22;9563;49.240;9.088;2023-04-07T19:11:43;11.00;99.90
18868;DHT22;9563;49.240;9.088;2023-04-07T19:14:10;11.00;99.90
18868;DHT22;9563;49.240;9.088;2023-04-07T19:16:38;11.00;99.90
18868;DHT22;9563;49.240;9.088;2023-04-07T19:19:05;11.10;99.90
18868;DHT22;9563;49.240;9.088;2023-04-07T19:21:34;11.10;99.90
18868;DHT22;9563;49.240;9.088;2023-04-07T19:24:01;11.00;99.90
18868;DHT22;9563;49.240;9.088;2023-04-07T19:26:28;11.00;99.90
18868;DHT22;9563;49.240;9.088;2023-04-07T19:28:56;11.00;99.90
18868;DHT22;9563;49.240;9.088;2023-04-07T19:31:23;10.90;99.90
18868;DHT22;9563;49.240;9.088;2023-04-07T19:33:50;11.00;99.90
18868;DHT22;9563;49.240;9.088;2023-04-07T19:36:17;10.90;99.90
18868;DHT22;9563;49.240;9.088;2023-04-07T19:38:44;10.90;99.90
18868;DHT22;9563;49.240;9.088;2023-04-07T19:41:11;10.90;99.90
18868;DHT22;9563;49.240;9.088;2023-04-07T19:43:38;10.90;99.90
18868;DHT22;9563;49.240;9.088;2023-04-07T19:46:06;10.90;99.90
18868;DHT22;9563;49.240;9.088;2023-04-07T19:48:33;10.80;99.90
18868;DHT22;9563;49.240;9.088;2023-04-07T19:51:01;10.90;99.90
18868;DHT22;9563;49.240;9.088;2023-04-07T19:53:28;10.90;99.90
18868;DHT22;9563;49.240;9.088;2023-04-07T19:55:55;10.90;99.90
18868;DHT22;9563;49.240;9.088;2023-04-07T19:58:22;10.90;99.90
18868;DHT22;9563;49.240;9.088;2023-04-07T20:00:49;10.90;99.90
18868;DHT22;9563;49.240;9.088;2023-04-07T20:03:18;10.90;99.90
18868;DHT22;9563;49.240;9.088;2023-04-07T20:05:45;10.90;99.90
18868;DHT22;9563;49.240;9.088;2023-04-07T20:08:12;10.90;99.90
18868;DHT22;9563;49.240;9.088;2023-04-07T20:10:39;10.80;99.90
18868;DHT22;9563;49.240;9.088;2023-04-07T20:13:06;10.80;99.90
18868;DHT22;9563;49.240;9.088;2023-04-07T20:15:33;10.80;99.90
18868;DHT22;9563;49.240;9.088;2023-04-07T20:18:00;10.80;99.90
18868;DHT22;9563;49.240;9.088;2023-04-07T20:20:29;10.80;99.90
18868;DHT22;9563;49.240;9.088;2023-04-07T20:22:56;10.80;99.90
18868;DHT22;9563;49.240;9.088;2023-04-07T20:25:23;10.80;99.90
18868;DHT22;9563;49.240;9.088;2023-04-07T20:27:50;10.80;99.90
18868;DHT22;9563;49.240;9.088;2023-04-07T20:30:17;10.80;99.90
18868;DHT22;9563;49.240;9.088;2023-04-07T20:32:44;10.80;99.90
18868;DHT22;9563;49.240;9.088;2023-04-07T20:35:11;10.80;99.90
18868;DHT22;9563;49.240;9.088;2023-04-07T20:37:40;10.80;99.90
18868;DHT22;9563;49.240;9.088;2023-04-07T20:40:08;10.70;99.90
18868;DHT22;9563;49.240;9.088;2023-04-07T20:42:35;10.70;99.90
18868;DHT22;9563;49.240;9.088;2023-04-07T20:45:02;10.70;99.90
18868;DHT22;9563;49.240;9.088;2023-04-07T20:47:31;10.70;99.90
18868;DHT22;9563;49.240;9.088;2023-04-07T20:50:00;10.70;99.90
18868;DHT22;9563;49.240;9.088;2023-04-07T20:52:27;10.60;99.90
18868;DHT22;9563;49.240;9.088;2023-04-07T20:54:55;10.60;99.90
18868;DHT22;9563;49.240;9.088;2023-04-07T20:57:22;10.60;99.90
18868;DHT22;9563;49.240;9.088;2023-04-07T20:59:49;10.60;99.90